Time;durP1;ratioP1;P1;durP2;ratioP2;P2;SDS_P1;SDS_P2;PMS_P1;PMS_P2;Temp;Humidity;BMP_temperature;BMP_pressure;BME280_temperature;BME280_humidity;BME280_pressure;Samples;Min_cycle;Max_cycle;Signal;HPM_P1;HPM_P2
2021/01/12 00:00:28;;;;;;;11.98;5.30;;;0.40;99.90;;;;;;5072178;28;20596;-69
2021/01/12 00:02:55;;;;;;;9.70;4.47;;;0.50;99.90;;;;;;5072352;28;20251;-68
2021/01/12 00:05:22;;;;;;;8.05;5.25;;;0.60;99.90;;;;;;5071152;28;20207;-70
2021/01/12 00:07:49;;;;;;;8.15;4.55;;;0.70;99.90;;;;;;5072082;28;20301;-69
2021/01/12 00:10:17;;;;;;;11.18;5.22;;;0.80;99.90;;;;;;5072140;28;20331;-69
2021/01/12 00:12:44;;;;;;;9.65;3.70;;;0.80;99.90;;;;;;5072114;28;20298;-69
2021/01/12 00:15:11;;;;;;;13.48;5.38;;;0.90;99.90;;;;;;5072244;28;20245;-69
2021/01/12 00:17:37;;;;;;;9.05;4.80;;;1.00;99.90;;;;;;5072146;28;20203;-69
2021/01/12 00:20:05;;;;;;;9.00;4.80;;;1.10;99.90;;;;;;5071871;28;20314;-69
2021/01/12 00:22:32;;;;;;;11.57;5.97;;;1.10;99.90;;;;;;5072006;28;20210;-69
2021/01/12 00:24:58;;;;;;;9.90;4.30;;;1.00;99.90;;;;;;5072314;28;20293;-69
2021/01/12 00:27:24;;;;;;;9.25;5.22;;;1.00;99.90;;;;;;5072058;28;20302;-69
2021/01/12 00:29:52;;;;;;;12.23;5.43;;;0.80;99.90;;;;;;5071852;28;20309;-71
2021/01/12 00:32:20;;;;;;;7.70;3.95;;;0.70;99.90;;;;;;5072061;28;20207;-70
2021/01/12 00:34:46;;;;;;;11.32;4.55;;;0.70;99.90;;;;;;5071913;28;20690;-69
2021/01/12 00:37:13;;;;;;;8.65;4.85;;;0.80;99.90;;;;;;5072039;28;20213;-69
2021/01/12 00:39:39;;;;;;;10.75;4.07;;;0.90;99.90;;;;;;5071751;28;20562;-69
2021/01/12 00:42:05;;;;;;;9.70;4.55;;;1.00;99.90;;;;;;5072006;28;20631;-69
2021/01/12 00:44:31;;;;;;;10.27;4.78;;;1.00;99.90;;;;;;5071869;28;20301;-69
2021/01/12 00:46:59;;;;;;;10.05;4.80;;;0.90;99.90;;;;;;5071811;28;20294;-70
2021/01/12 00:49:25;;;;;;;8.35;4.07;;;0.90;99.90;;;;;;5071609;28;20222;-69
2021/01/12 00:51:53;;;;;;;9.27;4.07;;;0.90;99.90;;;;;;5071972;28;20209;-69
2021/01/12 00:54:22;;;;;;;13.85;5.15;;;0.80;99.90;;;;;;5071684;28;20211;-69
2021/01/12 00:56:48;;;;;;;8.25;4.45;;;0.90;99.90;;;;;;5074395;28;20199;-70
2021/01/12 00:59:16;;;;;;;13.70;4.93;;;0.80;99.90;;;;;;5075324;28;20240;-69
2021/01/12 01:01:44;;;;;;;5.68;4.07;;;0.80;99.90;;;;;;5075405;28;20305;-69
2021/01/12 01:04:14;;;;;;;6.13;4.45;;;0.80;99.90;;;;;;5075298;28;20213;-71
2021/01/12 01:06:40;;;;;;;11.52;4.95;;;0.80;99.90;;;;;;5075781;28;20198;-69
2021/01/12 01:09:07;;;;;;;10.35;4.63;;;0.90;99.90;;;;;;5075383;28;20233;-69
2021/01/12 01:11:33;;;;;;;7.10;4.30;;;0.90;99.90;;;;;;5075567;28;20293;-69
2021/01/12 01:13:59;;;;;;;10.93;5.32;;;1.00;99.90;;;;;;5075240;28;20256;-69
2021/01/12 01:16:33;;;;;;;9.07;3.80;;;1.00;99.90;;;;;;5074914;28;20693;-69
2021/01/12 01:18:59;;;;;;;8.00;3.78;;;1.10;99.90;;;;;;5075131;28;20226;-68
2021/01/12 01:21:27;;;;;;;11.25;4.32;;;1.20;99.90;;;;;;5075120;28;20223;-69
2021/01/12 01:23:53;;;;;;;6.88;3.83;;;1.20;99.90;;;;;;5074972;28;20209;-69
2021/01/12 01:26:20;;;;;;;9.40;5.15;;;1.20;99.90;;;;;;5074772;28;20225;-69
2021/01/12 01:28:47;;;;;;;10.63;5.60;;;1.30;99.90;;;;;;5074947;28;20587;-69
2021/01/12 01:31:13;;;;;;;12.38;5.38;;;1.20;99.90;;;;;;5074772;28;20294;-69
2021/01/12 01:33:40;;;;;;;10.95;5.65;;;1.20;99.90;;;;;;5075048;28;20205;-69
2021/01/12 01:36:10;;;;;;;7.55;4.47;;;1.20;99.90;;;;;;5074922;28;20294;-69
2021/01/12 01:38:37;;;;;;;7.05;3.58;;;1.20;99.90;;;;;;5075166;28;20214;-71
2021/01/12 01:41:06;;;;;;;7.72;4.47;;;1.30;99.90;;;;;;5073891;28;20225;-71
2021/01/12 01:43:32;;;;;;;6.28;3.85;;;1.40;99.90;;;;;;5075015;28;20209;-70
2021/01/12 01:45:59;;;;;;;6.68;3.83;;;1.40;99.90;;;;;;5075124;28;20207;-69
2021/01/12 01:48:25;;;;;;;9.27;5.10;;;1.40;99.90;;;;;;5074967;28;20218;-69
2021/01/12 01:50:52;;;;;;;10.20;4.65;;;1.50;99.90;;;;;;5074457;28;20202;-69
2021/01/12 01:53:18;;;;;;;6.32;3.63;;;1.50;99.90;;;;;;5074690;28;20665;-70
2021/01/12 01:55:52;;;;;;;7.28;3.80;;;1.50;99.90;;;;;;5074553;28;20629;-70
2021/01/12 01:58:18;;;;;;;4.70;2.85;;;1.50;99.90;;;;;;5074618;28;20207;-70
2021/01/12 02:00:45;;;;;;;9.75;3.40;;;1.50;99.90;;;;;;5075176;28;20229;-70
2021/01/12 02:03:17;;;;;;;8.73;3.45;;;1.50;99.90;;;;;;5074543;28;20203;-70
2021/01/12 02:05:49;;;;;;;9.75;5.20;;;1.50;99.90;;;;;;5074555;28;20286;-70
2021/01/12 02:08:25;;;;;;;9.98;3.20;;;1.50;99.90;;;;;;5073539;28;20205;-69
2021/01/12 02:10:57;;;;;;;8.27;3.65;;;1.50;99.90;;;;;;5074140;28;20518;-70
2021/01/12 02:13:26;;;;;;;6.57;3.40;;;1.40;99.90;;;;;;5074551;28;20205;-69
2021/01/12 02:15:57;;;;;;;7.55;4.18;;;1.40;99.90;;;;;;5074197;28;20211;-69
2021/01/12 02:18:24;;;;;;;4.47;3.33;;;1.40;99.90;;;;;;5074341;28;20209;-70
2021/01/12 02:20:51;;;;;;;7.30;2.72;;;1.40;99.90;;;;;;5074059;28;20283;-70
2021/01/12 02:23:21;;;;;;;5.68;3.00;;;1.40;99.90;;;;;;5073992;28;20202;-69
2021/01/12 02:25:51;;;;;;;7.93;3.55;;;1.50;99.90;;;;;;5073978;28;20583;-69
2021/01/12 02:28:18;;;;;;;2.33;2.13;;;1.50;99.90;;;;;;5073969;28;20554;-70
2021/01/12 02:30:46;;;;;;;8.23;3.50;;;1.50;99.90;;;;;;5073829;28;20666;-69
2021/01/12 02:33:12;;;;;;;8.32;3.70;;;1.50;99.90;;;;;;5073914;28;20202;-70
2021/01/12 02:35:41;;;;;;;9.20;4.03;;;1.50;99.90;;;;;;5073597;28;20206;-69
2021/01/12 02:38:07;;;;;;;6.55;3.10;;;1.50;99.90;;;;;;5073764;28;20710;-69
2021/01/12 02:40:35;;;;;;;6.82;3.05;;;1.50;99.90;;;;;;5073476;28;20231;-69
2021/01/12 02:43:03;;;;;;;7.20;4.40;;;1.50;99.90;;;;;;5073786;28;20216;-69
2021/01/12 02:45:30;;;;;;;6.07;3.72;;;1.60;99.90;;;;;;5073608;28;20207;-70
2021/01/12 02:47:57;;;;;;;4.90;2.95;;;1.50;99.90;;;;;;5073648;28;20202;-69
2021/01/12 02:50:24;;;;;;;5.80;3.58;;;1.60;99.90;;;;;;5073232;28;20223;-70
2021/01/12 02:52:50;;;;;;;7.35;3.40;;;1.60;99.90;;;;;;5073649;28;20203;-69
2021/01/12 02:55:17;;;;;;;6.68;3.35;;;1.70;99.90;;;;;;5073394;28;20298;-70
2021/01/12 02:57:43;;;;;;;4.43;3.20;;;1.70;99.90;;;;;;5073594;28;20206;-69
2021/01/12 03:00:13;;;;;;;5.05;2.75;;;1.70;99.90;;;;;;5073092;28;20573;-71
2021/01/12 03:02:39;;;;;;;5.07;2.95;;;1.70;99.90;;;;;;5071750;28;20195;-72
2021/01/12 03:05:08;;;;;;;4.40;3.25;;;1.70;99.90;;;;;;5057330;28;20210;-70
2021/01/12 03:07:35;;;;;;;5.35;2.78;;;1.80;99.90;;;;;;5054395;28;20339;-70
2021/01/12 03:10:01;;;;;;;4.65;2.80;;;1.80;99.90;;;;;;5054932;28;20230;-69
2021/01/12 03:12:27;;;;;;;8.38;3.65;;;1.90;99.90;;;;;;5054696;28;20202;-69
2021/01/12 03:14:54;;;;;;;6.03;3.38;;;1.90;99.90;;;;;;5054878;28;20290;-68
2021/01/12 03:17:21;;;;;;;3.80;2.67;;;1.90;99.90;;;;;;5054091;28;20204;-69
2021/01/12 03:19:47;;;;;;;5.97;3.28;;;2.00;99.90;;;;;;5054283;28;20642;-69
2021/01/12 03:22:14;;;;;;;5.38;3.67;;;2.00;99.90;;;;;;5054443;28;20227;-69
2021/01/12 03:24:42;;;;;;;6.80;3.00;;;2.00;99.90;;;;;;5054442;28;20634;-69
2021/01/12 03:27:08;;;;;;;8.60;3.00;;;2.00;99.90;;;;;;5054009;28;20207;-69
2021/01/12 03:29:34;;;;;;;4.75;2.70;;;2.00;99.90;;;;;;5054598;28;20310;-69
2021/01/12 03:32:01;;;;;;;7.22;3.80;;;2.00;99.90;;;;;;5054931;28;20203;-69
2021/01/12 03:34:28;;;;;;;4.70;2.40;;;2.00;99.90;;;;;;5054022;28;20204;-69
2021/01/12 03:36:55;;;;;;;7.15;3.45;;;2.10;99.90;;;;;;5054454;28;20229;-69
2021/01/12 03:39:21;;;;;;;6.18;3.10;;;2.10;99.90;;;;;;5054249;28;20282;-69
2021/01/12 03:41:48;;;;;;;4.78;3.25;;;2.10;99.90;;;;;;5053966;28;20311;-68
2021/01/12 03:44:14;;;;;;;2.90;2.00;;;2.10;99.90;;;;;;5053957;28;20569;-68
2021/01/12 03:46:40;;;;;;;5.85;2.45;;;2.20;99.90;;;;;;5053673;28;20214;-69
2021/01/12 03:49:08;;;;;;;6.20;3.33;;;2.20;99.90;;;;;;5053796;28;20632;-69
2021/01/12 03:51:35;;;;;;;5.78;3.05;;;2.20;99.90;;;;;;5053909;28;20706;-68
2021/01/12 03:54:01;;;;;;;5.60;2.70;;;2.20;99.90;;;;;;5054023;28;20756;-68
2021/01/12 03:56:27;;;;;;;3.10;2.50;;;2.30;99.90;;;;;;5053700;28;20203;-69
2021/01/12 03:58:54;;;;;;;5.78;2.53;;;2.30;99.90;;;;;;5054127;28;20321;-69
2021/01/12 04:01:20;;;;;;;3.47;2.40;;;2.30;99.90;;;;;;5053722;28;20230;-68
2021/01/12 04:03:46;;;;;;;4.50;2.42;;;2.20;99.90;;;;;;5053886;28;20299;-68
2021/01/12 04:06:15;;;;;;;7.72;2.70;;;2.20;99.90;;;;;;5053542;28;20290;-68
2021/01/12 04:08:43;;;;;;;2.70;1.63;;;2.20;99.90;;;;;;5053918;28;20210;-68
2021/01/12 04:11:11;;;;;;;5.47;3.15;;;2.30;99.90;;;;;;5054534;28;20199;-68
2021/01/12 04:13:38;;;;;;;2.92;2.08;;;2.30;99.90;;;;;;5053965;28;20672;-68
2021/01/12 04:16:05;;;;;;;4.95;2.72;;;2.30;99.90;;;;;;5053497;28;20206;-68
2021/01/12 04:18:31;;;;;;;4.70;2.30;;;2.30;99.90;;;;;;5053630;28;20229;-68
2021/01/12 04:20:57;;;;;;;7.50;2.53;;;2.30;99.90;;;;;;5053887;28;20230;-68
2021/01/12 04:23:24;;;;;;;5.55;2.85;;;2.30;99.90;;;;;;5053636;28;20294;-68
2021/01/12 04:25:51;;;;;;;6.43;2.75;;;2.30;99.90;;;;;;5053639;28;20290;-68
2021/01/12 04:28:17;;;;;;;4.97;2.65;;;2.40;99.90;;;;;;5053084;28;20215;-68
2021/01/12 04:30:43;;;;;;;3.35;2.60;;;2.40;99.90;;;;;;5054362;28;20215;-68
2021/01/12 04:33:10;;;;;;;4.15;2.55;;;2.40;99.90;;;;;;5057804;28;20542;-68
2021/01/12 04:35:37;;;;;;;4.85;2.80;;;2.40;99.90;;;;;;5057474;28;20202;-68
2021/01/12 04:38:03;;;;;;;6.82;2.60;;;2.40;99.90;;;;;;5057781;28;20289;-68
2021/01/12 04:40:30;;;;;;;6.07;2.92;;;2.40;99.90;;;;;;5057250;28;20248;-70
2021/01/12 04:42:58;;;;;;;3.00;2.45;;;2.40;99.90;;;;;;5057355;28;20333;-69
2021/01/12 04:45:24;;;;;;;6.07;3.13;;;2.50;99.90;;;;;;5057492;28;20571;-68
2021/01/12 04:47:51;;;;;;;5.18;3.25;;;2.50;99.90;;;;;;5057170;28;20213;-69
2021/01/12 04:50:17;;;;;;;5.88;3.33;;;2.50;99.90;;;;;;5057322;28;20318;-68
2021/01/12 04:52:47;;;;;;;5.18;3.55;;;2.50;99.90;;;;;;5057615;28;20207;-68
2021/01/12 04:55:15;;;;;;;3.38;1.73;;;2.50;99.90;;;;;;5057555;28;20208;-68
2021/01/12 04:57:42;;;;;;;8.18;2.58;;;2.50;99.90;;;;;;5056872;28;20209;-69
2021/01/12 05:00:12;;;;;;;4.90;3.22;;;2.50;99.90;;;;;;5057282;28;20318;-68
2021/01/12 05:02:39;;;;;;;5.30;2.70;;;2.50;99.90;;;;;;5057204;28;20224;-69
2021/01/12 05:05:07;;;;;;;4.63;3.60;;;2.60;99.90;;;;;;5056864;28;20207;-68
2021/01/12 05:07:36;;;;;;;8.07;3.35;;;2.60;99.90;;;;;;5056880;28;20203;-69
2021/01/12 05:10:09;;;;;;;4.00;2.92;;;2.80;99.90;;;;;;5056938;28;20223;-69
2021/01/12 05:12:36;;;;;;;4.50;3.47;;;2.70;99.90;;;;;;5057009;28;20249;-68
2021/01/12 05:15:03;;;;;;;5.43;2.85;;;2.70;99.90;;;;;;5057038;28;20278;-69
2021/01/12 05:17:33;;;;;;;5.28;3.20;;;2.70;99.90;;;;;;5056911;28;20372;-69
2021/01/12 05:20:02;;;;;;;6.40;3.45;;;2.80;99.90;;;;;;5056353;28;20219;-68
2021/01/12 05:22:30;;;;;;;4.68;3.15;;;2.80;99.90;;;;;;5057276;28;20634;-69
2021/01/12 05:25:19;;;;;;;5.53;2.80;;;2.80;99.90;;;;;;5056685;28;20210;-68
2021/01/12 05:27:51;;;;;;;4.70;2.63;;;2.80;99.90;;;;;;5056492;28;20215;-69
2021/01/12 05:30:25;;;;;;;6.15;2.70;;;2.80;99.90;;;;;;5056351;28;20227;-69
2021/01/12 05:32:53;;;;;;;7.20;3.45;;;2.80;99.90;;;;;;5056449;28;20207;-68
2021/01/12 05:35:20;;;;;;;4.55;2.65;;;2.90;99.90;;;;;;5056118;28;20204;-68
2021/01/12 05:37:47;;;;;;;4.68;2.67;;;2.90;99.90;;;;;;5056369;28;20286;-68
2021/01/12 05:40:14;;;;;;;7.13;3.75;;;2.90;99.90;;;;;;5056451;28;20707;-68
2021/01/12 05:42:41;;;;;;;6.38;3.30;;;2.80;99.90;;;;;;5056440;28;20223;-68
2021/01/12 05:45:08;;;;;;;6.60;3.88;;;2.70;99.90;;;;;;5056092;28;20207;-69
2021/01/12 05:47:34;;;;;;;7.38;3.83;;;2.70;99.90;;;;;;5055772;28;20653;-69
2021/01/12 05:50:02;;;;;;;8.93;3.97;;;2.70;99.90;;;;;;5056326;28;20230;-68
2021/01/12 05:52:35;;;;;;;7.00;3.97;;;2.70;99.90;;;;;;5056522;28;20205;-68
2021/01/12 05:55:05;;;;;;;5.03;2.85;;;2.70;99.90;;;;;;5056353;28;20208;-68
2021/01/12 05:57:33;;;;;;;5.25;3.42;;;2.70;99.90;;;;;;5056239;28;20219;-68
2021/01/12 06:00:04;;;;;;;7.20;3.10;;;2.60;99.90;;;;;;5056300;28;20277;-68
2021/01/12 06:02:32;;;;;;;4.47;2.35;;;2.60;99.90;;;;;;5056005;28;20380;-68
2021/01/12 06:04:58;;;;;;;5.35;3.10;;;2.60;99.90;;;;;;5056078;28;20230;-68
2021/01/12 06:07:27;;;;;;;5.63;2.63;;;2.60;99.90;;;;;;5055966;28;20209;-68
2021/01/12 06:09:55;;;;;;;4.00;2.38;;;2.60;99.90;;;;;;5055694;28;20228;-68
2021/01/12 06:12:24;;;;;;;4.70;2.65;;;2.60;99.90;;;;;;5056166;28;20684;-69
2021/01/12 06:14:52;;;;;;;5.22;1.80;;;2.70;99.90;;;;;;5055771;28;20199;-69
2021/01/12 06:17:19;;;;;;;5.10;2.20;;;2.70;99.90;;;;;;5055444;28;20200;-69
2021/01/12 06:19:47;;;;;;;12.20;3.85;;;2.70;99.90;;;;;;5055628;28;20780;-69
2021/01/12 06:22:23;;;;;;;7.85;3.33;;;2.80;99.90;;;;;;5055845;28;20233;-68
2021/01/12 06:25:03;;;;;;;2.67;1.65;;;2.90;99.90;;;;;;5055699;28;20242;-68
2021/01/12 06:27:30;;;;;;;4.47;2.60;;;2.90;99.90;;;;;;5055118;28;20211;-68
2021/01/12 06:29:59;;;;;;;7.68;2.85;;;2.90;99.90;;;;;;5055409;28;20250;-68
2021/01/12 06:32:27;;;;;;;3.00;2.17;;;2.90;99.90;;;;;;5055683;28;20210;-68
2021/01/12 06:34:54;;;;;;;3.75;2.60;;;2.90;99.90;;;;;;5055682;28;20199;-68
2021/01/12 06:37:22;;;;;;;4.72;2.30;;;2.90;99.90;;;;;;5054909;28;20226;-68
2021/01/12 06:39:51;;;;;;;5.32;2.65;;;2.90;99.90;;;;;;5055053;28;20277;-68
2021/01/12 06:42:22;;;;;;;5.57;3.53;;;2.80;99.90;;;;;;5055057;28;20249;-68
2021/01/12 06:44:50;;;;;;;3.60;1.92;;;2.80;99.90;;;;;;5055296;28;20209;-68
2021/01/12 06:47:19;;;;;;;5.05;2.47;;;2.80;99.90;;;;;;5055309;28;20222;-68
2021/01/12 06:49:45;;;;;;;4.82;2.55;;;2.80;99.90;;;;;;5054971;28;20224;-69
2021/01/12 06:52:13;;;;;;;5.22;2.20;;;2.80;99.90;;;;;;5055050;28;20257;-68
2021/01/12 06:54:41;;;;;;;4.35;2.70;;;2.80;99.90;;;;;;5054524;28;20207;-69
2021/01/12 06:57:08;;;;;;;5.50;2.17;;;2.80;99.90;;;;;;5054682;28;20203;-69
2021/01/12 06:59:38;;;;;;;6.18;1.88;;;2.80;99.90;;;;;;5054648;28;20223;-68
2021/01/12 07:02:09;;;;;;;3.50;2.20;;;2.90;99.90;;;;;;5055352;28;20227;-68
2021/01/12 07:04:35;;;;;;;6.15;2.80;;;2.90;99.90;;;;;;5054708;28;20211;-68
2021/01/12 07:07:02;;;;;;;6.70;2.95;;;2.90;99.90;;;;;;5054417;28;20210;-68
2021/01/12 07:09:29;;;;;;;3.83;2.40;;;2.90;99.90;;;;;;5054783;28;20223;-69
2021/01/12 07:12:06;;;;;;;3.15;2.10;;;3.00;99.90;;;;;;5054845;28;20199;-68
2021/01/12 07:14:42;;;;;;;2.95;2.40;;;3.00;99.90;;;;;;5054650;28;20211;-68
2021/01/12 07:17:10;;;;;;;4.90;2.70;;;3.00;99.90;;;;;;5054326;28;20611;-68
2021/01/12 07:19:37;;;;;;;6.28;2.53;;;3.00;99.90;;;;;;5054636;28;20223;-68
2021/01/12 07:22:20;;;;;;;2.50;2.30;;;3.00;99.90;;;;;;5054585;28;20227;-68
2021/01/12 07:24:48;;;;;;;5.93;2.80;;;3.00;99.90;;;;;;5054768;28;20214;-68
2021/01/12 07:27:16;;;;;;;2.80;2.20;;;3.00;99.90;;;;;;5053773;28;20215;-69
2021/01/12 07:29:48;;;;;;;3.88;2.13;;;3.10;99.90;;;;;;5054357;28;20224;-69
2021/01/12 07:32:25;;;;;;;4.80;2.30;;;3.10;99.90;;;;;;5054432;28;20196;-69
2021/01/12 07:34:55;;;;;;;3.30;2.03;;;3.10;99.90;;;;;;5054220;28;20199;-69
2021/01/12 07:37:30;;;;;;;2.25;1.35;;;3.10;99.90;;;;;;5054345;28;20210;-68
2021/01/12 07:39:57;;;;;;;2.53;1.65;;;3.10;99.90;;;;;;5054109;28;20256;-69
2021/01/12 07:42:24;;;;;;;6.30;2.10;;;3.10;99.90;;;;;;5054089;28;20227;-69
2021/01/12 07:44:51;;;;;;;3.50;2.28;;;3.10;99.90;;;;;;5053894;28;20294;-68
2021/01/12 07:47:18;;;;;;;4.35;2.28;;;3.10;99.90;;;;;;5054093;28;20199;-68
2021/01/12 07:49:48;;;;;;;4.28;1.90;;;3.20;99.90;;;;;;5054131;28;20688;-68
2021/01/12 07:52:15;;;;;;;3.83;2.00;;;3.20;99.90;;;;;;5054391;28;20614;-68
2021/01/12 07:54:41;;;;;;;4.57;2.58;;;3.20;99.90;;;;;;5053539;28;20207;-69
2021/01/12 07:57:09;;;;;;;5.53;2.35;;;3.30;99.90;;;;;;5053595;28;20200;-68
2021/01/12 07:59:36;;;;;;;4.45;2.90;;;3.30;99.90;;;;;;5054009;28;20318;-68
2021/01/12 08:02:04;;;;;;;3.50;2.05;;;3.30;99.90;;;;;;5054003;28;20318;-69
2021/01/12 08:04:31;;;;;;;6.78;2.88;;;3.30;99.90;;;;;;5053896;28;20203;-69
2021/01/12 08:06:58;;;;;;;5.68;2.85;;;3.40;99.90;;;;;;5052940;28;20203;-69
2021/01/12 08:09:25;;;;;;;4.60;2.25;;;3.40;99.90;;;;;;5054128;28;20273;-69
2021/01/12 08:11:54;;;;;;;5.47;2.15;;;3.40;99.90;;;;;;5053600;28;20203;-69
2021/01/12 08:14:24;;;;;;;7.45;3.35;;;3.40;99.90;;;;;;5053863;28;20272;-68
2021/01/12 08:16:52;;;;;;;6.95;2.53;;;3.40;99.90;;;;;;5053367;28;20203;-69
2021/01/12 08:19:21;;;;;;;4.70;2.25;;;3.50;99.90;;;;;;5053843;28;20698;-69
2021/01/12 08:21:47;;;;;;;3.10;2.20;;;3.50;99.90;;;;;;5053509;28;20223;-68
2021/01/12 08:24:21;;;;;;;6.95;2.60;;;3.60;99.90;;;;;;5053453;28;20278;-69
2021/01/12 08:26:48;;;;;;;2.75;2.03;;;3.60;99.90;;;;;;5053256;28;20207;-69
2021/01/12 08:29:15;;;;;;;5.40;2.60;;;3.60;99.90;;;;;;5053419;28;20223;-68
2021/01/12 08:31:50;;;;;;;3.55;2.15;;;3.50;99.90;;;;;;5054194;28;20631;-69
2021/01/12 08:34:21;;;;;;;4.28;3.00;;;3.50;99.90;;;;;;5053434;28;20255;-68
2021/01/12 08:36:50;;;;;;;3.80;2.90;;;3.60;99.90;;;;;;5053241;28;20203;-69
2021/01/12 08:39:16;;;;;;;4.15;2.58;;;3.60;99.90;;;;;;5053283;28;20233;-69
2021/01/12 08:41:46;;;;;;;2.53;2.28;;;3.70;99.90;;;;;;5053850;28;20227;-69
2021/01/12 08:44:15;;;;;;;2.72;2.05;;;3.80;99.90;;;;;;5053689;28;20207;-68
2021/01/12 08:46:42;;;;;;;3.72;2.30;;;3.80;99.90;;;;;;5053017;28;20207;-71
2021/01/12 08:49:08;;;;;;;2.22;1.55;;;3.80;99.90;;;;;;5053206;28;20219;-71
2021/01/12 08:51:35;;;;;;;2.63;2.28;;;3.80;99.90;;;;;;5053457;28;20207;-71
2021/01/12 08:54:02;;;;;;;11.60;2.33;;;3.70;99.90;;;;;;5053644;28;20206;-69
2021/01/12 08:56:28;;;;;;;2.47;1.75;;;3.80;99.90;;;;;;5053152;28;20231;-70
2021/01/12 08:59:06;;;;;;;4.10;2.03;;;3.80;99.90;;;;;;5053630;28;20311;-70
2021/01/12 09:01:34;;;;;;;2.97;2.10;;;3.80;99.90;;;;;;5052947;28;20685;-72
2021/01/12 09:04:05;;;;;;;1.77;1.30;;;3.80;99.90;;;;;;5053108;28;20203;-70
2021/01/12 09:06:32;;;;;;;2.58;1.90;;;3.80;99.90;;;;;;5061919;28;20251;-71
2021/01/12 09:09:09;;;;;;;2.20;1.50;;;3.90;99.90;;;;;;5059513;28;20738;-71
2021/01/12 09:11:40;;;;;;;3.58;1.92;;;3.90;99.90;;;;;;5060310;28;20273;-71
2021/01/12 09:14:07;;;;;;;2.53;1.90;;;3.90;99.90;;;;;;5061307;28;20209;-71
2021/01/12 09:16:34;;;;;;;1.73;1.58;;;3.90;99.90;;;;;;5062847;28;20209;-70
2021/01/12 09:19:13;;;;;;;4.32;2.17;;;3.90;99.90;;;;;;5066291;28;20225;-71
2021/01/12 09:21:39;;;;;;;4.43;1.58;;;3.90;99.90;;;;;;5057123;28;20277;-68
2021/01/12 09:24:07;;;;;;;2.33;1.60;;;3.90;99.90;;;;;;5057037;28;20658;-68
2021/01/12 09:26:35;;;;;;;2.50;1.52;;;3.90;99.90;;;;;;5056390;28;20281;-68
2021/01/12 09:29:01;;;;;;;2.78;1.80;;;3.90;99.90;;;;;;5056668;28;20223;-68
2021/01/12 09:31:29;;;;;;;1.60;1.00;;;3.90;99.90;;;;;;5056670;28;20194;-67
2021/01/12 09:33:57;;;;;;;1.17;1.00;;;4.00;99.90;;;;;;5056838;28;20210;-67
2021/01/12 09:36:32;;;;;;;4.32;1.58;;;4.00;99.90;;;;;;5056372;28;20210;-67
2021/01/12 09:38:58;;;;;;;2.20;1.50;;;4.00;99.90;;;;;;5056270;28;20219;-67
2021/01/12 09:41:26;;;;;;;2.35;1.50;;;3.90;99.90;;;;;;5056264;28;20687;-68
2021/01/12 09:43:54;;;;;;;3.97;1.55;;;3.90;99.90;;;;;;5056579;28;20595;-67
2021/01/12 09:46:21;;;;;;;2.22;1.65;;;3.90;99.90;;;;;;5055843;28;20199;-67
2021/01/12 09:48:49;;;;;;;1.58;1.48;;;4.00;99.90;;;;;;5056508;28;20200;-68
2021/01/12 09:51:16;;;;;;;2.17;1.45;;;4.00;99.90;;;;;;5056196;28;20284;-68
2021/01/12 09:53:42;;;;;;;1.67;0.98;;;3.90;99.90;;;;;;5056210;28;20207;-68
2021/01/12 09:56:12;;;;;;;1.50;1.23;;;3.90;99.90;;;;;;5055711;28;20253;-68
2021/01/12 09:58:39;;;;;;;0.80;0.77;;;3.90;99.90;;;;;;5056242;28;20207;-67
2021/01/12 10:01:05;;;;;;;1.35;1.10;;;3.80;99.90;;;;;;5056546;28;20255;-67
2021/01/12 10:03:32;;;;;;;2.17;1.10;;;3.80;99.90;;;;;;5056350;28;20290;-67
2021/01/12 10:05:59;;;;;;;1.95;1.10;;;3.80;99.90;;;;;;5055464;28;20666;-67
2021/01/12 10:08:25;;;;;;;1.02;0.93;;;3.80;99.90;;;;;;5055995;28;20204;-68
2021/01/12 10:10:52;;;;;;;1.80;1.00;;;3.80;99.90;;;;;;5055796;28;20272;-67
2021/01/12 10:13:19;;;;;;;1.05;0.60;;;3.80;99.90;;;;;;5056011;28;20250;-68
2021/01/12 10:15:45;;;;;;;1.13;0.95;;;3.80;99.90;;;;;;5055864;28;20602;-68
2021/01/12 10:18:12;;;;;;;1.30;1.20;;;3.70;99.90;;;;;;5056061;28;20210;-68
2021/01/12 10:20:38;;;;;;;1.67;0.90;;;3.70;99.90;;;;;;5055667;28;20310;-67
2021/01/12 10:23:05;;;;;;;0.77;0.63;;;3.70;99.90;;;;;;5055708;28;20318;-68
2021/01/12 10:25:32;;;;;;;1.55;0.95;;;3.60;99.90;;;;;;5055623;28;20684;-68
2021/01/12 10:27:59;;;;;;;1.95;1.02;;;3.60;99.90;;;;;;5054588;28;20294;-68
2021/01/12 10:30:26;;;;;;;0.85;0.82;;;3.60;99.90;;;;;;5055604;28;20223;-67
2021/01/12 10:32:52;;;;;;;0.95;0.95;;;3.60;99.90;;;;;;5055890;28;20310;-68
2021/01/12 10:35:19;;;;;;;1.33;0.90;;;3.60;99.90;;;;;;5055452;28;20209;-67
2021/01/12 10:37:46;;;;;;;1.60;0.90;;;3.60;99.90;;;;;;5055217;28;20208;-68
2021/01/12 10:40:15;;;;;;;1.63;1.20;;;3.50;99.90;;;;;;5055688;28;20229;-68
2021/01/12 10:42:41;;;;;;;0.80;0.80;;;3.50;99.90;;;;;;5054941;28;20258;-68
2021/01/12 10:45:09;;;;;;;1.83;1.00;;;3.50;99.90;;;;;;5055114;28;20199;-67
2021/01/12 10:47:36;;;;;;;2.15;1.33;;;3.50;99.90;;;;;;5054697;28;20210;-68
2021/01/12 10:50:03;;;;;;;1.58;0.80;;;3.50;99.90;;;;;;5055242;28;20220;-67
2021/01/12 10:52:32;;;;;;;0.60;0.60;;;3.50;99.90;;;;;;5055257;28;20254;-68
2021/01/12 10:54:59;;;;;;;1.98;1.23;;;3.50;99.90;;;;;;5055306;28;20286;-68
2021/01/12 10:57:26;;;;;;;0.60;0.60;;;3.60;99.90;;;;;;5054525;28;20199;-68
2021/01/12 10:59:53;;;;;;;2.05;0.77;;;3.60;99.90;;;;;;5055225;28;20231;-67
2021/01/12 11:02:22;;;;;;;1.75;0.82;;;3.50;99.90;;;;;;5054845;28;20230;-68
2021/01/12 11:04:48;;;;;;;0.90;0.50;;;3.50;99.90;;;;;;5054989;28;20204;-68
2021/01/12 11:07:15;;;;;;;0.70;0.70;;;3.50;99.90;;;;;;5054876;28;20294;-67
2021/01/12 11:09:41;;;;;;;0.90;0.80;;;3.60;99.90;;;;;;5054496;28;20235;-68
2021/01/12 11:12:10;;;;;;;0.70;0.50;;;3.60;99.90;;;;;;5055032;28;20230;-68
2021/01/12 11:14:37;;;;;;;0.68;0.68;;;3.60;99.90;;;;;;5054550;28;20208;-67
2021/01/12 11:17:04;;;;;;;0.82;0.60;;;3.60;99.90;;;;;;5054548;28;20281;-68
2021/01/12 11:19:31;;;;;;;0.45;0.45;;;3.60;99.90;;;;;;5054424;28;20276;-68
2021/01/12 11:21:57;;;;;;;1.45;0.73;;;3.60;99.90;;;;;;5054559;28;20223;-68
2021/01/12 11:24:24;;;;;;;1.10;0.50;;;3.60;99.90;;;;;;5054803;28;20204;-68
2021/01/12 11:26:52;;;;;;;1.77;0.60;;;3.60;99.90;;;;;;5054083;28;20207;-68
2021/01/12 11:29:19;;;;;;;0.65;0.65;;;3.60;99.90;;;;;;5054418;28;20235;-68
2021/01/12 11:31:47;;;;;;;0.43;0.43;;;3.60;99.90;;;;;;5054483;28;20558;-68
2021/01/12 11:34:13;;;;;;;1.58;0.50;;;3.60;99.90;;;;;;5054395;28;20638;-68
2021/01/12 11:36:42;;;;;;;1.05;0.50;;;3.70;99.90;;;;;;5054005;28;20204;-67
2021/01/12 11:39:10;;;;;;;0.63;0.43;;;3.70;99.90;;;;;;5054274;28;20220;-68
2021/01/12 11:41:37;;;;;;;0.55;0.50;;;3.70;99.90;;;;;;5054792;28;20250;-67
2021/01/12 11:44:03;;;;;;;0.40;0.40;;;3.80;99.90;;;;;;5054172;28;20600;-68
2021/01/12 11:46:30;;;;;;;0.65;0.65;;;3.80;99.90;;;;;;5054080;28;20214;-68
2021/01/12 11:48:59;;;;;;;0.40;0.30;;;3.80;99.90;;;;;;5053897;28;20315;-67
2021/01/12 11:51:34;;;;;;;0.70;0.60;;;3.80;99.90;;;;;;5054561;28;20199;-68
2021/01/12 11:54:01;;;;;;;0.93;0.50;;;3.80;99.90;;;;;;5054338;28;20672;-68
2021/01/12 11:56:27;;;;;;;0.75;0.75;;;3.80;99.90;;;;;;5053597;28;20199;-68
2021/01/12 11:58:53;;;;;;;0.50;0.50;;;3.80;99.90;;;;;;5054028;28;20314;-68
2021/01/12 12:01:20;;;;;;;0.40;0.40;;;3.80;99.90;;;;;;5053852;28;20226;-68
2021/01/12 12:03:46;;;;;;;2.40;0.52;;;3.80;99.90;;;;;;5054072;28;20298;-68
2021/01/12 12:06:13;;;;;;;0.50;0.50;;;3.80;99.90;;;;;;5053792;28;20257;-68
2021/01/12 12:08:39;;;;;;;0.30;0.30;;;3.90;99.90;;;;;;5054118;28;20199;-68
2021/01/12 12:11:06;;;;;;;0.82;0.60;;;3.80;99.90;;;;;;5053867;28;20349;-68
2021/01/12 12:13:39;;;;;;;1.13;0.50;;;3.80;99.90;;;;;;5053612;28;20661;-68
2021/01/12 12:16:06;;;;;;;0.75;0.55;;;3.90;99.90;;;;;;5053580;28;20568;-68
2021/01/12 12:18:33;;;;;;;0.47;0.47;;;3.90;99.90;;;;;;5053822;28;20210;-68
2021/01/12 12:20:59;;;;;;;0.77;0.45;;;3.90;99.90;;;;;;5054240;28;20206;-68
2021/01/12 12:23:27;;;;;;;1.77;0.43;;;3.90;99.90;;;;;;5053309;28;20213;-68
2021/01/12 12:25:53;;;;;;;1.48;0.70;;;4.00;99.90;;;;;;5053149;28;20290;-68
2021/01/12 12:28:20;;;;;;;0.52;0.52;;;4.00;99.90;;;;;;5053691;28;20221;-68
2021/01/12 12:30:46;;;;;;;0.68;0.40;;;4.00;99.90;;;;;;5054076;28;20371;-68
2021/01/12 12:33:12;;;;;;;0.90;0.60;;;3.90;99.90;;;;;;5053350;28;20730;-68
2021/01/12 12:35:38;;;;;;;0.50;0.40;;;4.00;99.90;;;;;;5053669;28;20348;-68
2021/01/12 12:38:05;;;;;;;0.50;0.50;;;4.00;99.90;;;;;;5053500;28;20353;-68
2021/01/12 12:40:32;;;;;;;0.65;0.47;;;3.90;99.90;;;;;;5053325;28;20715;-68
2021/01/12 12:42:58;;;;;;;0.60;0.40;;;3.90;99.90;;;;;;5053583;28;20633;-68
2021/01/12 12:45:25;;;;;;;1.38;0.88;;;3.90;99.90;;;;;;5053108;28;20297;-68
2021/01/12 12:47:52;;;;;;;0.57;0.45;;;3.90;99.90;;;;;;5053575;28;20599;-68
2021/01/12 12:50:18;;;;;;;0.60;0.32;;;4.00;99.90;;;;;;5053141;28;20231;-68
2021/01/12 12:52:45;;;;;;;0.70;0.60;;;4.00;99.90;;;;;;5055789;28;20252;-68
2021/01/12 12:55:12;;;;;;;1.05;0.75;;;4.00;99.90;;;;;;5057420;28;20206;-68
2021/01/12 12:57:40;;;;;;;0.75;0.60;;;4.00;99.90;;;;;;5057281;28;20206;-68